EGXE

Leeming Airport

Leeming, United Kingdom
METAR EGXE 172050Z AUTO 28002KT 0800 FG BKN014/// 02/02 Q1032
Observed Flight Rules
Nov-17 @ 20:50 UTC (an hour ago) Instrument Flight Rules
Wind Visibility Clouds Conditions
280° at 2 knots 805 meters
  • Broken at 1,400' AGL
  • Fog
Temperatures Readings
Current 2°C / 36°F
Dewpoint 2°C / 36°F
Humidity 100%
Altimeter 30.47" Hg
Pressure 1032 hPa
Elevation 40
METAR EGXE 172050Z AUTO 28002KT 0800 FG BKN014/// 02/02 Q1032
Observed Flight Rules
Nov-17 @ 20:50 UTC
(an hour ago)
LIFR
Wind Visibility
280° at 2 knots 805 meters
Clouds
  • Broken at 1,400' AGL
Conditions
  • Fog
Temperature Dewpoint
2°C / 36°F 2°C / 36°F
Humidity Altimeter Pressure
100% 30.47" Hg 1032 hPa